Time,TemperatureF,DewpointF,PressureIn,WindDirection,WindDirectionDegrees,WindSpeedMPH,WindSpeedGustMPH,Humidity,HourlyPrecipIn,Conditions,Clouds,dailyrainin,SoftwareType,DateUTC
2013-06-28 00:09:00,63.4,63.0,29.72,East,90,0.0,-999.0,99,-99.99,,,0.00,weatherlink.com 1.10,2013-06-28 04:09:00,
2013-06-28 00:24:00,63.4,63.0,29.72,East,82,0.0,-999.0,99,-99.99,,,0.00,weatherlink.com 1.10,2013-06-28 04:24:00,
2013-06-28 00:39:00,63.2,63.0,29.71,East,86,0.0,-999.0,99,-99.99,,,0.00,weatherlink.com 1.10,2013-06-28 04:39:00,
2013-06-28 00:54:00,63.1,63.0,29.71,ENE,75,0.0,-999.0,99,-99.99,,,0.00,weatherlink.com 1.10,2013-06-28 04:54:00,
2013-06-28 01:09:00,62.7,63.0,29.70,NE,46,0.0,-999.0,99,-99.99,,,0.00,weatherlink.com 1.10,2013-06-28 05:09:00,
2013-06-28 01:24:00,62.1,62.0,29.69,NE,52,0.0,-999.0,99,-99.99,,,0.01,weatherlink.com 1.10,2013-06-28 05:24:00,
2013-06-28 01:39:00,61.1,61.0,29.69,NNE,28,0.0,-999.0,99,-99.99,,,0.01,weatherlink.com 1.10,2013-06-28 05:39:00,
2013-06-28 01:54:00,60.5,60.0,29.67,ENE,69,0.0,-999.0,99,-99.99,,,0.02,weatherlink.com 1.10,2013-06-28 05:54:00,
2013-06-28 02:09:00,60.2,60.0,29.66,East,88,0.0,-999.0,99,-99.99,,,0.04,weatherlink.com 1.10,2013-06-28 06:09:00,
2013-06-28 02:24:00,59.6,59.0,29.66,ENE,76,0.0,-999.0,99,-99.99,,,0.07,weatherlink.com 1.10,2013-06-28 06:24:00,
2013-06-28 02:39:00,59.3,59.0,29.65,ENE,60,0.0,-999.0,99,-99.99,,,0.10,weatherlink.com 1.10,2013-06-28 06:39:00,
2013-06-28 02:54:00,59.1,59.0,29.65,ENE,57,0.0,-999.0,99,-99.99,,,0.12,weatherlink.com 1.10,2013-06-28 06:54:00,
2013-06-28 03:09:00,58.7,59.0,29.63,East,90,0.0,-999.0,99,-99.99,,,0.15,weatherlink.com 1.10,2013-06-28 07:09:00,
2013-06-28 03:24:00,58.6,58.0,29.62,ENE,62,0.0,-999.0,99,-99.99,,,0.17,weatherlink.com 1.10,2013-06-28 07:24:00,
2013-06-28 03:39:00,58.6,58.0,29.61,ENE,69,0.0,-999.0,99,-99.99,,,0.18,weatherlink.com 1.10,2013-06-28 07:39:00,
2013-06-28 03:54:00,58.6,58.0,29.61,ENE,65,0.0,-999.0,99,-99.99,,,0.20,weatherlink.com 1.10,2013-06-28 07:54:00,
2013-06-28 04:09:00,58.7,59.0,29.61,ENE,63,0.0,-999.0,99,-99.99,,,0.21,weatherlink.com 1.10,2013-06-28 08:09:00,
2013-06-28 04:24:00,58.9,59.0,29.61,NNE,29,0.0,-999.0,99,-99.99,,,0.22,weatherlink.com 1.10,2013-06-28 08:24:00,
2013-06-28 04:39:00,59.0,59.0,29.60,NE,45,0.0,-999.0,99,-99.99,,,0.23,weatherlink.com 1.10,2013-06-28 08:39:00,
2013-06-28 04:54:00,59.3,59.0,29.60,ENE,63,0.0,-999.0,99,-99.99,,,0.24,weatherlink.com 1.10,2013-06-28 08:54:00,
2013-06-28 05:09:00,59.4,59.0,29.59,NE,40,0.0,-999.0,99,-99.99,,,0.24,weatherlink.com 1.10,2013-06-28 09:09:00,
2013-06-28 05:24:00,59.4,59.0,29.59,ENE,60,0.0,-999.0,99,-99.99,,,0.25,weatherlink.com 1.10,2013-06-28 09:24:00,
2013-06-28 05:39:00,59.5,59.0,29.59,NE,53,0.0,-999.0,99,-99.99,,,0.26,weatherlink.com 1.10,2013-06-28 09:39:00,
2013-06-28 05:54:00,59.6,59.0,29.59,NE,46,0.0,-999.0,99,-99.99,,,0.26,weatherlink.com 1.10,2013-06-28 09:54:00,
2013-06-28 06:09:00,59.8,60.0,29.58,ENE,58,0.0,-999.0,99,-99.99,,,0.27,weatherlink.com 1.10,2013-06-28 10:09:00,
2013-06-28 06:24:00,60.0,60.0,29.58,ENE,70,0.0,-999.0,99,-99.99,,,0.28,weatherlink.com 1.10,2013-06-28 10:24:00,
2013-06-28 06:39:00,60.1,60.0,29.57,NE,47,0.0,-999.0,99,-99.99,,,0.28,weatherlink.com 1.10,2013-06-28 10:39:00,
2013-06-28 06:54:00,60.4,60.0,29.57,NE,39,0.0,-999.0,99,-99.99,,,0.28,weatherlink.com 1.10,2013-06-28 10:54:00,
2013-06-28 07:09:00,60.8,61.0,29.56,NE,37,0.0,-999.0,99,-99.99,,,0.29,weatherlink.com 1.10,2013-06-28 11:09:00,
2013-06-28 07:24:00,61.2,61.0,29.56,NE,44,0.0,-999.0,99,-99.99,,,0.29,weatherlink.com 1.10,2013-06-28 11:24:00,
2013-06-28 07:39:00,61.8,62.0,29.55,NE,45,0.0,-999.0,99,-99.99,,,0.29,weatherlink.com 1.10,2013-06-28 11:39:00,
2013-06-28 07:54:00,62.3,62.0,29.55,NE,47,0.0,-999.0,99,-99.99,,,0.30,weatherlink.com 1.10,2013-06-28 11:54:00,
2013-06-28 08:09:00,62.7,63.0,29.54,NE,39,0.0,-999.0,99,-99.99,,,0.30,weatherlink.com 1.10,2013-06-28 12:09:00,
2013-06-28 08:24:00,63.1,63.0,29.54,NE,39,0.0,-999.0,99,-99.99,,,0.30,weatherlink.com 1.10,2013-06-28 12:24:00,
2013-06-28 08:39:00,63.6,63.0,29.53,NE,39,0.0,-999.0,99,-99.99,,,0.30,weatherlink.com 1.10,2013-06-28 12:39:00,
2013-06-28 08:54:00,64.1,64.0,29.52,NE,39,0.0,-999.0,99,-99.99,,,0.30,weatherlink.com 1.10,2013-06-28 12:54:00,
2013-06-28 09:09:00,64.5,64.0,29.52,NE,39,0.0,-999.0,99,-99.99,,,0.30,weatherlink.com 1.10,2013-06-28 13:09:00,
2013-06-28 09:24:00,65.5,65.0,29.52,NE,39,0.0,-999.0,99,-99.99,,,0.30,weatherlink.com 1.10,2013-06-28 13:24:00,
2013-06-28 09:39:00,65.9,66.0,29.51,NE,40,0.0,-999.0,99,-99.99,,,0.30,weatherlink.com 1.10,2013-06-28 13:39:00,
2013-06-28 09:54:00,67.0,67.0,29.50,NE,52,0.0,-999.0,99,-99.99,,,0.30,weatherlink.com 1.10,2013-06-28 13:54:00,
2013-06-28 10:09:00,68.7,68.0,29.50,NE,55,0.0,-999.0,99,-99.99,,,0.31,weatherlink.com 1.10,2013-06-28 14:09:00,
2013-06-28 10:24:00,70.9,71.0,29.50,SE,136,0.0,-999.0,99,-99.99,,,0.31,weatherlink.com 1.10,2013-06-28 14:24:00,
2013-06-28 10:39:00,71.9,72.0,29.49,South,188,0.0,-999.0,99,-99.99,,,0.31,weatherlink.com 1.10,2013-06-28 14:39:00,
2013-06-28 10:54:00,73.2,73.0,29.48,SSE,153,0.0,-999.0,99,-99.99,,,0.31,weatherlink.com 1.10,2013-06-28 14:54:00,
2013-06-28 11:09:00,74.4,74.0,29.49,SSE,160,0.0,-999.0,99,-99.99,,,0.31,weatherlink.com 1.10,2013-06-28 15:09:00,
2013-06-28 11:24:00,73.7,73.0,29.49,SSW,212,0.0,-999.0,99,-99.99,,,0.31,weatherlink.com 1.10,2013-06-28 15:24:00,
2013-06-28 11:39:00,75.1,75.0,29.49,SSW,208,0.0,-999.0,99,-99.99,,,0.31,weatherlink.com 1.10,2013-06-28 15:39:00,
2013-06-28 11:54:00,75.0,74.0,29.49,South,189,0.0,-999.0,96,-99.99,,,0.31,weatherlink.com 1.10,2013-06-28 15:54:00,
2013-06-28 12:09:00,77.1,75.0,29.48,South,188,0.0,-999.0,93,-99.99,,,0.31,weatherlink.com 1.10,2013-06-28 16:09:00,
2013-06-28 12:24:00,77.9,76.0,29.47,SSE,151,0.0,-999.0,93,-99.99,,,0.31,weatherlink.com 1.10,2013-06-28 16:24:00,
2013-06-28 12:39:00,76.9,74.0,29.46,South,184,0.0,-999.0,91,-99.99,,,0.31,weatherlink.com 1.10,2013-06-28 16:39:00,
2013-06-28 12:54:00,78.1,77.0,29.46,SSW,197,0.0,-999.0,95,-99.99,,,0.31,weatherlink.com 1.10,2013-06-28 16:54:00,
2013-06-28 13:09:00,78.5,75.0,29.46,South,186,0.0,-999.0,88,-99.99,,,0.31,weatherlink.com 1.10,2013-06-28 17:09:00,
2013-06-28 13:24:00,79.1,75.0,29.45,SW,223,0.0,-999.0,87,-99.99,,,0.31,weatherlink.com 1.10,2013-06-28 17:24:00,
2013-06-28 13:39:00,78.8,75.0,29.46,South,177,0.0,-999.0,88,-99.99,,,0.31,weatherlink.com 1.10,2013-06-28 17:39:00,
2013-06-28 13:54:00,79.9,75.0,29.45,WSW,244,0.0,-999.0,85,-99.99,,,0.31,weatherlink.com 1.10,2013-06-28 17:54:00,
2013-06-28 14:09:00,80.7,76.0,29.46,SE,140,0.0,-999.0,86,-99.99,,,0.31,weatherlink.com 1.10,2013-06-28 18:09:00,
2013-06-28 14:24:00,82.5,76.0,29.45,South,182,0.0,-999.0,80,-99.99,,,0.31,weatherlink.com 1.10,2013-06-28 18:24:00,
2013-06-28 14:39:00,80.6,74.0,29.45,SSW,206,0.0,-999.0,81,-99.99,,,0.31,weatherlink.com 1.10,2013-06-28 18:39:00,
2013-06-28 14:54:00,81.1,75.0,29.44,SE,135,0.0,-999.0,82,-99.99,,,0.31,weatherlink.com 1.10,2013-06-28 18:54:00,
2013-06-28 15:09:00,80.9,73.0,29.44,SSW,202,0.0,-999.0,78,-99.99,,,0.31,weatherlink.com 1.10,2013-06-28 19:09:00,
2013-06-28 15:24:00,79.5,73.0,29.45,SW,229,0.0,-999.0,79,-99.99,,,0.31,weatherlink.com 1.10,2013-06-28 19:24:00,
2013-06-28 15:39:00,77.3,73.0,29.44,SSW,197,0.0,-999.0,85,-99.99,,,0.31,weatherlink.com 1.10,2013-06-28 19:39:00,
2013-06-28 15:54:00,78.3,74.0,29.44,West,259,0.0,-999.0,85,-99.99,,,0.31,weatherlink.com 1.10,2013-06-28 19:54:00,
2013-06-28 16:09:00,76.2,72.0,29.45,West,265,0.0,-999.0,87,-99.99,,,0.31,weatherlink.com 1.10,2013-06-28 20:09:00,
2013-06-28 16:24:00,78.5,74.0,29.45,SW,214,0.0,-999.0,85,-99.99,,,0.31,weatherlink.com 1.10,2013-06-28 20:24:00,
2013-06-28 16:39:00,77.8,73.0,29.45,West,265,0.0,-999.0,84,-99.99,,,0.31,weatherlink.com 1.10,2013-06-28 20:39:00,
2013-06-28 16:54:00,80.3,74.0,29.45,SW,214,0.0,-999.0,80,-99.99,,,0.31,weatherlink.com 1.10,2013-06-28 20:54:00,
2013-06-28 17:09:00,80.7,74.0,29.44,SSW,198,0.0,-999.0,80,-99.99,,,0.31,weatherlink.com 1.10,2013-06-28 21:09:00,
2013-06-28 17:24:00,79.7,73.0,29.44,SSW,212,0.0,-999.0,81,-99.99,,,0.31,weatherlink.com 1.10,2013-06-28 21:24:00,
2013-06-28 17:39:00,79.6,73.0,29.44,SW,228,0.0,-999.0,81,-99.99,,,0.31,weatherlink.com 1.10,2013-06-28 21:39:00,
2013-06-28 17:54:00,78.2,74.0,29.44,SW,231,0.0,-999.0,86,-99.99,,,0.31,weatherlink.com 1.10,2013-06-28 21:54:00,
2013-06-28 18:09:00,78.4,74.0,29.45,SSW,203,0.0,-999.0,86,-99.99,,,0.31,weatherlink.com 1.10,2013-06-28 22:09:00,
2013-06-28 18:24:00,78.7,73.0,29.45,SSW,198,0.0,-999.0,83,-99.99,,,0.31,weatherlink.com 1.10,2013-06-28 22:24:00,
2013-06-28 18:39:00,76.3,72.0,29.46,SSW,200,0.0,-999.0,85,-99.99,,,0.31,weatherlink.com 1.10,2013-06-28 22:39:00,
2013-06-28 18:54:00,75.1,71.0,29.45,SW,226,0.0,-999.0,88,-99.99,,,0.31,weatherlink.com 1.10,2013-06-28 22:54:00,
2013-06-28 19:09:00,75.1,72.0,29.45,South,184,0.0,-999.0,89,-99.99,,,0.31,weatherlink.com 1.10,2013-06-28 23:09:00,
2013-06-28 19:24:00,73.8,71.0,29.46,SSW,196,0.0,-999.0,92,-99.99,,,0.31,weatherlink.com 1.10,2013-06-28 23:24:00,
2013-06-28 19:39:00,73.2,71.0,29.47,South,186,0.0,-999.0,93,-99.99,,,0.31,weatherlink.com 1.10,2013-06-28 23:39:00,
2013-06-28 19:54:00,73.2,71.0,29.47,SW,217,0.0,-999.0,93,-99.99,,,0.31,weatherlink.com 1.10,2013-06-28 23:54:00,
2013-06-28 20:09:00,72.5,71.0,29.47,SW,217,0.0,-999.0,94,-99.99,,,0.31,weatherlink.com 1.10,2013-06-29 00:09:00,
2013-06-28 20:24:00,71.5,70.0,29.47,South,186,0.0,-999.0,95,-99.99,,,0.31,weatherlink.com 1.10,2013-06-29 00:24:00,
2013-06-28 20:39:00,70.8,70.0,29.48,SSW,200,0.0,-999.0,96,-99.99,,,0.31,weatherlink.com 1.10,2013-06-29 00:39:00,
2013-06-28 20:54:00,70.4,70.0,29.48,South,174,0.0,-999.0,97,-99.99,,,0.31,weatherlink.com 1.10,2013-06-29 00:54:00,
2013-06-28 21:09:00,70.3,69.0,29.48,South,183,0.0,-999.0,97,-99.99,,,0.31,weatherlink.com 1.10,2013-06-29 01:09:00,
2013-06-28 21:24:00,70.3,69.0,29.49,SSW,203,0.0,-999.0,97,-99.99,,,0.31,weatherlink.com 1.10,2013-06-29 01:24:00,
2013-06-28 21:39:00,70.5,70.0,29.50,South,173,0.0,-999.0,97,-99.99,,,0.31,weatherlink.com 1.10,2013-06-29 01:39:00,
2013-06-28 21:54:00,70.4,70.0,29.50,South,190,0.0,-999.0,97,-99.99,,,0.31,weatherlink.com 1.10,2013-06-29 01:54:00,
2013-06-28 22:09:00,70.3,69.0,29.50,South,178,0.0,-999.0,97,-99.99,,,0.31,weatherlink.com 1.10,2013-06-29 02:09:00,
2013-06-28 22:24:00,69.9,69.0,29.50,South,189,0.0,-999.0,97,-99.99,,,0.31,weatherlink.com 1.10,2013-06-29 02:24:00,
2013-06-28 22:39:00,69.7,69.0,29.51,South,169,0.0,-999.0,97,-99.99,,,0.31,weatherlink.com 1.10,2013-06-29 02:39:00,
2013-06-28 22:54:00,69.6,69.0,29.50,SSW,201,0.0,-999.0,97,-99.99,,,0.31,weatherlink.com 1.10,2013-06-29 02:54:00,
2013-06-28 23:09:00,69.7,69.0,29.50,South,178,0.0,-999.0,97,-99.99,,,0.31,weatherlink.com 1.10,2013-06-29 03:09:00,
2013-06-28 23:24:00,69.5,69.0,29.50,SSW,198,0.0,-999.0,97,-99.99,,,0.31,weatherlink.com 1.10,2013-06-29 03:24:00,
2013-06-28 23:39:00,69.3,69.0,29.49,SW,214,0.0,-999.0,97,-99.99,,,0.00,weatherlink.com 1.10,2013-06-29 03:39:00,
2013-06-28 23:54:00,69.2,68.0,29.50,South,184,0.0,-999.0,97,-99.99,,,0.00,weatherlink.com 1.10,2013-06-29 03:54:00,